This is the latest recevied weather packets stored in our database for station/object JP3QZN-13. If no packets are shown the sender has not sent any weather packets the latest 10 day(s).
| Time | Temp. | Humidity | Pressure | Rain* | Wind** | Luminosity | Snow |
|---|---|---|---|---|---|---|---|
| 1777622411 | 17.78° C | 60% | 1003.4 hPa | 0 mm | - | - | - |
| 1777620610 | 18.89° C | 59% | 1003.1 hPa | 0 mm | - | - | - |
| 1777618809 | 20° C | 55% | 1002.8 hPa | 0 mm | - | - | - |
| 1777617009 | 21.11° C | 54% | 1002.3 hPa | 0 mm | - | - | - |
| 1777615208 | 21.67° C | 55% | 1002.4 hPa | 0 mm | - | - | - |
| 1777613407 | 21.11° C | 57% | 1002.1 hPa | 0 mm | - | - | - |
| 1777611606 | 20° C | 61% | 1002.4 hPa | 0 mm | - | - | - |
| 1777609826 | 18.33° C | 68% | 1002.7 hPa | 0 mm | - | - | - |
| 1777608025 | 18.89° C | 67% | 1003 hPa | 0 mm | - | - | - |
| 1777606224 | 18.89° C | 70% | 1002.9 hPa | 0 mm | - | - | - |
| 1777604423 | 18.89° C | 72% | 1003.5 hPa | 0 mm | - | - | - |
| 1777602622 | 17.78° C | 76% | 1003.9 hPa | 0 mm | - | - | - |
| 1777600821 | 17.22° C | 79% | 1004.3 hPa | 0 mm | - | - | - |
| 1777599021 | 16.67° C | 82% | 1004.7 hPa | 0 mm | - | - | - |
| 1777597220 | 16.67° C | 84% | 1004.6 hPa | 0 mm | - | - | - |
| 1777595409 | 16.67° C | 85% | 1004.5 hPa | 0 mm | - | - | - |
| 1777593608 | 16.67° C | 85% | 1004 hPa | 1.27 mm | - | - | - |
| 1777588206 | 17.78° C | 82% | 1001.7 hPa | 0 mm | - | - | - |
| 1777586405 | 17.22° C | 83% | 1001.9 hPa | 0 mm | - | - | - |
| 1777584604 | 16.67° C | 83% | 1002.5 hPa | 0 mm | - | - | - |
| 1777582803 | 16.67° C | 82% | 1003.6 hPa | 0.25 mm | - | - | - |
| 1777581002 | 16.11° C | 82% | 1003.5 hPa | 0.25 mm | - | - | - |
| 1777579202 | 16.11° C | 81% | 1003.9 hPa | 0.25 mm | - | - | - |
| 1777577401 | 16.11° C | 81% | 1004.3 hPa | 0.25 mm | - | - | - |
| 1777575629 | 16.11° C | 81% | 1004.8 hPa | 0 mm | - | - | - |
* Rain latest hour (hover to see other rain measurements)
** Current wind speed in m/s (hover to see current wind gust speed)